sensor_id;sensor_type;location;lat;lon;timestamp;P1;durP1;ratioP1;P2;durP2;ratioP2
3036;SDS011;1528;52.550;13.408;2022-10-16T00:02:14;8.87;;;8.43;;
3036;SDS011;1528;52.550;13.408;2022-10-16T00:05:00;8.53;;;8.17;;
3036;SDS011;1528;52.550;13.408;2022-10-16T00:07:46;8.93;;;8.53;;
3036;SDS011;1528;52.550;13.408;2022-10-16T00:10:32;9.33;;;8.93;;
3036;SDS011;1528;52.550;13.408;2022-10-16T00:13:18;8.47;;;8.17;;
3036;SDS011;1528;52.550;13.408;2022-10-16T00:16:04;7.60;;;7.30;;
3036;SDS011;1528;52.550;13.408;2022-10-16T00:18:50;8.30;;;8.00;;
3036;SDS011;1528;52.550;13.408;2022-10-16T00:21:36;7.63;;;7.30;;
3036;SDS011;1528;52.550;13.408;2022-10-16T00:24:23;8.37;;;7.90;;
3036;SDS011;1528;52.550;13.408;2022-10-16T00:27:08;8.00;;;7.60;;
3036;SDS011;1528;52.550;13.408;2022-10-16T00:29:54;7.90;;;7.50;;
3036;SDS011;1528;52.550;13.408;2022-10-16T00:32:39;7.47;;;7.17;;
3036;SDS011;1528;52.550;13.408;2022-10-16T00:35:25;8.43;;;8.13;;
3036;SDS011;1528;52.550;13.408;2022-10-16T00:38:10;8.50;;;8.20;;
3036;SDS011;1528;52.550;13.408;2022-10-16T00:40:57;7.07;;;6.80;;
3036;SDS011;1528;52.550;13.408;2022-10-16T00:43:43;8.10;;;7.70;;
3036;SDS011;1528;52.550;13.408;2022-10-16T00:46:31;8.20;;;7.90;;
3036;SDS011;1528;52.550;13.408;2022-10-16T00:49:21;8.33;;;8.03;;
3036;SDS011;1528;52.550;13.408;2022-10-16T00:52:07;6.70;;;6.50;;
3036;SDS011;1528;52.550;13.408;2022-10-16T00:54:53;7.70;;;7.30;;
3036;SDS011;1528;52.550;13.408;2022-10-16T00:57:41;6.90;;;6.70;;
3036;SDS011;1528;52.550;13.408;2022-10-16T01:00:26;9.20;;;8.90;;
3036;SDS011;1528;52.550;13.408;2022-10-16T01:03:22;8.10;;;7.80;;
3036;SDS011;1528;52.550;13.408;2022-10-16T01:06:14;9.00;;;8.60;;
3036;SDS011;1528;52.550;13.408;2022-10-16T01:09:10;9.97;;;9.57;;
3036;SDS011;1528;52.550;13.408;2022-10-16T01:12:01;8.77;;;8.37;;
3036;SDS011;1528;52.550;13.408;2022-10-16T01:14:54;8.30;;;8.00;;
3036;SDS011;1528;52.550;13.408;2022-10-16T01:17:45;8.03;;;7.73;;
3036;SDS011;1528;52.550;13.408;2022-10-16T01:20:37;7.00;;;6.70;;
3036;SDS011;1528;52.550;13.408;2022-10-16T01:23:34;10.20;;;9.80;;
3036;SDS011;1528;52.550;13.408;2022-10-16T01:26:31;14.20;;;13.70;;
3036;SDS011;1528;52.550;13.408;2022-10-16T01:29:29;13.23;;;12.83;;
3036;SDS011;1528;52.550;13.408;2022-10-16T01:32:20;14.20;;;13.80;;
3036;SDS011;1528;52.550;13.408;2022-10-16T01:35:09;8.10;;;7.70;;
3036;SDS011;1528;52.550;13.408;2022-10-16T01:38:00;8.10;;;7.80;;
3036;SDS011;1528;52.550;13.408;2022-10-16T01:40:49;7.90;;;7.60;;
3036;SDS011;1528;52.550;13.408;2022-10-16T01:43:40;7.30;;;7.00;;
3036;SDS011;1528;52.550;13.408;2022-10-16T01:46:34;7.50;;;7.20;;
3036;SDS011;1528;52.550;13.408;2022-10-16T01:49:23;8.87;;;8.53;;
3036;SDS011;1528;52.550;13.408;2022-10-16T01:52:13;8.90;;;8.60;;
3036;SDS011;1528;52.550;13.408;2022-10-16T01:55:02;8.20;;;7.80;;
3036;SDS011;1528;52.550;13.408;2022-10-16T01:57:51;8.20;;;7.90;;
3036;SDS011;1528;52.550;13.408;2022-10-16T02:00:39;9.13;;;8.83;;
3036;SDS011;1528;52.550;13.408;2022-10-16T02:03:28;8.70;;;8.40;;
3036;SDS011;1528;52.550;13.408;2022-10-16T02:06:13;8.03;;;7.73;;
3036;SDS011;1528;52.550;13.408;2022-10-16T02:08:59;14.00;;;13.60;;
3036;SDS011;1528;52.550;13.408;2022-10-16T02:11:44;13.60;;;13.17;;
3036;SDS011;1528;52.550;13.408;2022-10-16T02:14:30;15.00;;;14.50;;
3036;SDS011;1528;52.550;13.408;2022-10-16T02:17:17;18.20;;;17.70;;
3036;SDS011;1528;52.550;13.408;2022-10-16T02:20:04;8.23;;;7.93;;
3036;SDS011;1528;52.550;13.408;2022-10-16T02:22:50;10.57;;;10.17;;
3036;SDS011;1528;52.550;13.408;2022-10-16T02:25:38;9.07;;;8.57;;
3036;SDS011;1528;52.550;13.408;2022-10-16T02:28:28;7.40;;;7.00;;
3036;SDS011;1528;52.550;13.408;2022-10-16T02:31:21;9.30;;;9.00;;
3036;SDS011;1528;52.550;13.408;2022-10-16T02:34:11;9.63;;;9.33;;
3036;SDS011;1528;52.550;13.408;2022-10-16T02:37:00;8.80;;;8.50;;
3036;SDS011;1528;52.550;13.408;2022-10-16T02:39:48;8.07;;;7.77;;
3036;SDS011;1528;52.550;13.408;2022-10-16T02:42:34;8.00;;;7.70;;
3036;SDS011;1528;52.550;13.408;2022-10-16T02:45:20;7.90;;;7.47;;
3036;SDS011;1528;52.550;13.408;2022-10-16T02:48:06;7.60;;;7.20;;
3036;SDS011;1528;52.550;13.408;2022-10-16T02:50:52;7.90;;;7.60;;
3036;SDS011;1528;52.550;13.408;2022-10-16T02:53:39;7.30;;;7.00;;
3036;SDS011;1528;52.550;13.408;2022-10-16T02:56:24;7.47;;;7.17;;
3036;SDS011;1528;52.550;13.408;2022-10-16T02:59:10;6.97;;;6.47;;
3036;SDS011;1528;52.550;13.408;2022-10-16T03:01:55;7.33;;;7.03;;
3036;SDS011;1528;52.550;13.408;2022-10-16T03:04:41;7.17;;;6.77;;
3036;SDS011;1528;52.550;13.408;2022-10-16T03:07:26;7.73;;;7.43;;
3036;SDS011;1528;52.550;13.408;2022-10-16T03:10:13;7.60;;;7.30;;
3036;SDS011;1528;52.550;13.408;2022-10-16T03:12:59;7.20;;;6.90;;
3036;SDS011;1528;52.550;13.408;2022-10-16T03:15:45;6.90;;;6.63;;
3036;SDS011;1528;52.550;13.408;2022-10-16T03:18:30;6.67;;;6.37;;
3036;SDS011;1528;52.550;13.408;2022-10-16T03:21:16;6.90;;;6.60;;
3036;SDS011;1528;52.550;13.408;2022-10-16T03:24:01;7.70;;;7.40;;
3036;SDS011;1528;52.550;13.408;2022-10-16T03:26:48;7.83;;;7.53;;
3036;SDS011;1528;52.550;13.408;2022-10-16T03:29:34;8.97;;;8.67;;
3036;SDS011;1528;52.550;13.408;2022-10-16T03:32:19;8.93;;;8.63;;
3036;SDS011;1528;52.550;13.408;2022-10-16T03:35:05;8.90;;;8.60;;
3036;SDS011;1528;52.550;13.408;2022-10-16T03:37:51;8.50;;;8.20;;
3036;SDS011;1528;52.550;13.408;2022-10-16T03:40:37;8.80;;;8.37;;
3036;SDS011;1528;52.550;13.408;2022-10-16T03:43:23;6.07;;;5.87;;
3036;SDS011;1528;52.550;13.408;2022-10-16T03:46:09;15.87;;;15.37;;
3036;SDS011;1528;52.550;13.408;2022-10-16T03:48:54;15.53;;;15.03;;
3036;SDS011;1528;52.550;13.408;2022-10-16T03:51:40;14.20;;;13.63;;
3036;SDS011;1528;52.550;13.408;2022-10-16T03:54:25;14.30;;;13.83;;
3036;SDS011;1528;52.550;13.408;2022-10-16T03:57:11;11.60;;;11.20;;
3036;SDS011;1528;52.550;13.408;2022-10-16T03:59:59;10.93;;;10.53;;
3036;SDS011;1528;52.550;13.408;2022-10-16T04:02:45;13.93;;;13.40;;
3036;SDS011;1528;52.550;13.408;2022-10-16T04:05:30;15.27;;;14.77;;
3036;SDS011;1528;52.550;13.408;2022-10-16T04:08:16;15.50;;;15.00;;
3036;SDS011;1528;52.550;13.408;2022-10-16T04:11:02;17.03;;;16.60;;
3036;SDS011;1528;52.550;13.408;2022-10-16T04:13:47;12.43;;;12.03;;
3036;SDS011;1528;52.550;13.408;2022-10-16T04:16:34;15.10;;;14.60;;
3036;SDS011;1528;52.550;13.408;2022-10-16T04:19:20;16.07;;;15.47;;
3036;SDS011;1528;52.550;13.408;2022-10-16T04:22:05;15.83;;;15.33;;
3036;SDS011;1528;52.550;13.408;2022-10-16T04:24:51;20.00;;;19.27;;
3036;SDS011;1528;52.550;13.408;2022-10-16T04:27:36;16.20;;;15.70;;
3036;SDS011;1528;52.550;13.408;2022-10-16T04:30:22;15.63;;;15.13;;
3036;SDS011;1528;52.550;13.408;2022-10-16T04:33:09;17.13;;;16.63;;
3036;SDS011;1528;52.550;13.408;2022-10-16T04:35:56;17.23;;;16.63;;
3036;SDS011;1528;52.550;13.408;2022-10-16T04:38:42;9.70;;;9.30;;
3036;SDS011;1528;52.550;13.408;2022-10-16T04:41:27;8.60;;;8.30;;
3036;SDS011;1528;52.550;13.408;2022-10-16T04:44:13;10.67;;;10.27;;
3036;SDS011;1528;52.550;13.408;2022-10-16T04:46:58;9.60;;;9.30;;
3036;SDS011;1528;52.550;13.408;2022-10-16T04:49:45;9.20;;;8.90;;
3036;SDS011;1528;52.550;13.408;2022-10-16T04:52:31;9.47;;;9.10;;
3036;SDS011;1528;52.550;13.408;2022-10-16T04:55:16;9.93;;;9.63;;
3036;SDS011;1528;52.550;13.408;2022-10-16T04:58:02;9.00;;;8.60;;
3036;SDS011;1528;52.550;13.408;2022-10-16T05:00:47;9.00;;;8.40;;
3036;SDS011;1528;52.550;13.408;2022-10-16T05:03:33;8.20;;;7.90;;
3036;SDS011;1528;52.550;13.408;2022-10-16T05:06:20;10.60;;;10.00;;
3036;SDS011;1528;52.550;13.408;2022-10-16T05:09:05;8.80;;;8.50;;
3036;SDS011;1528;52.550;13.408;2022-10-16T05:11:51;9.13;;;8.77;;
3036;SDS011;1528;52.550;13.408;2022-10-16T05:14:36;8.27;;;7.87;;
3036;SDS011;1528;52.550;13.408;2022-10-16T05:17:22;8.53;;;8.10;;
3036;SDS011;1528;52.550;13.408;2022-10-16T05:20:07;8.87;;;8.50;;
3036;SDS011;1528;52.550;13.408;2022-10-16T05:22:54;8.30;;;8.00;;
3036;SDS011;1528;52.550;13.408;2022-10-16T05:25:40;9.73;;;9.33;;
3036;SDS011;1528;52.550;13.408;2022-10-16T05:28:26;10.87;;;10.47;;
3036;SDS011;1528;52.550;13.408;2022-10-16T05:31:12;10.70;;;10.20;;
3036;SDS011;1528;52.550;13.408;2022-10-16T05:33:58;8.40;;;8.00;;
3036;SDS011;1528;52.550;13.408;2022-10-16T05:36:43;11.13;;;10.63;;
3036;SDS011;1528;52.550;13.408;2022-10-16T05:39:31;8.13;;;7.73;;
3036;SDS011;1528;52.550;13.408;2022-10-16T05:42:16;8.27;;;7.97;;
3036;SDS011;1528;52.550;13.408;2022-10-16T05:45:02;8.37;;;8.03;;
3036;SDS011;1528;52.550;13.408;2022-10-16T05:47:48;9.30;;;8.90;;
3036;SDS011;1528;52.550;13.408;2022-10-16T05:50:34;8.63;;;8.30;;
3036;SDS011;1528;52.550;13.408;2022-10-16T05:53:20;10.07;;;9.67;;
3036;SDS011;1528;52.550;13.408;2022-10-16T05:56:10;8.67;;;8.37;;
3036;SDS011;1528;52.550;13.408;2022-10-16T05:58:56;8.90;;;8.50;;
3036;SDS011;1528;52.550;13.408;2022-10-16T06:01:41;8.90;;;8.50;;
3036;SDS011;1528;52.550;13.408;2022-10-16T06:04:27;9.23;;;8.83;;
3036;SDS011;1528;52.550;13.408;2022-10-16T06:07:12;9.00;;;8.40;;
3036;SDS011;1528;52.550;13.408;2022-10-16T06:09:58;7.23;;;6.93;;
3036;SDS011;1528;52.550;13.408;2022-10-16T06:12:45;7.97;;;7.60;;
3036;SDS011;1528;52.550;13.408;2022-10-16T06:15:30;9.30;;;8.90;;
3036;SDS011;1528;52.550;13.408;2022-10-16T06:18:16;8.70;;;8.37;;
3036;SDS011;1528;52.550;13.408;2022-10-16T06:21:06;8.40;;;8.10;;
3036;SDS011;1528;52.550;13.408;2022-10-16T06:23:52;8.57;;;8.27;;
3036;SDS011;1528;52.550;13.408;2022-10-16T06:26:39;8.27;;;7.97;;
3036;SDS011;1528;52.550;13.408;2022-10-16T06:29:26;8.20;;;7.80;;
3036;SDS011;1528;52.550;13.408;2022-10-16T06:32:11;10.07;;;9.60;;
3036;SDS011;1528;52.550;13.408;2022-10-16T06:34:57;9.13;;;8.60;;
3036;SDS011;1528;52.550;13.408;2022-10-16T06:37:42;8.23;;;7.93;;
3036;SDS011;1528;52.550;13.408;2022-10-16T06:40:28;8.80;;;8.40;;
3036;SDS011;1528;52.550;13.408;2022-10-16T06:43:13;9.60;;;9.20;;
3036;SDS011;1528;52.550;13.408;2022-10-16T06:46:01;9.33;;;8.73;;
3036;SDS011;1528;52.550;13.408;2022-10-16T06:48:47;8.30;;;7.90;;
3036;SDS011;1528;52.550;13.408;2022-10-16T06:51:33;8.67;;;8.17;;
3036;SDS011;1528;52.550;13.408;2022-10-16T06:54:19;9.40;;;9.00;;
3036;SDS011;1528;52.550;13.408;2022-10-16T06:57:05;8.27;;;7.77;;
3036;SDS011;1528;52.550;13.408;2022-10-16T06:59:50;7.97;;;7.67;;
3036;SDS011;1528;52.550;13.408;2022-10-16T07:02:37;9.33;;;8.93;;
3036;SDS011;1528;52.550;13.408;2022-10-16T07:05:23;8.33;;;8.00;;
3036;SDS011;1528;52.550;13.408;2022-10-16T07:08:09;10.27;;;9.87;;
3036;SDS011;1528;52.550;13.408;2022-10-16T07:10:57;10.30;;;9.90;;
3036;SDS011;1528;52.550;13.408;2022-10-16T07:13:44;9.00;;;8.70;;
3036;SDS011;1528;52.550;13.408;2022-10-16T07:16:31;10.50;;;10.00;;
3036;SDS011;1528;52.550;13.408;2022-10-16T07:19:19;9.23;;;8.83;;
3036;SDS011;1528;52.550;13.408;2022-10-16T07:22:04;8.03;;;7.73;;
3036;SDS011;1528;52.550;13.408;2022-10-16T07:24:50;8.10;;;7.77;;
3036;SDS011;1528;52.550;13.408;2022-10-16T07:27:36;7.63;;;7.33;;
3036;SDS011;1528;52.550;13.408;2022-10-16T07:30:22;9.07;;;8.67;;
3036;SDS011;1528;52.550;13.408;2022-10-16T07:33:07;9.70;;;9.30;;
3036;SDS011;1528;52.550;13.408;2022-10-16T07:35:54;8.63;;;8.23;;
3036;SDS011;1528;52.550;13.408;2022-10-16T07:38:39;8.37;;;8.00;;
3036;SDS011;1528;52.550;13.408;2022-10-16T07:41:25;9.63;;;9.20;;
3036;SDS011;1528;52.550;13.408;2022-10-16T07:44:11;8.30;;;8.00;;
3036;SDS011;1528;52.550;13.408;2022-10-16T07:46:56;15.97;;;14.73;;
3036;SDS011;1528;52.550;13.408;2022-10-16T07:49:42;13.83;;;12.93;;
3036;SDS011;1528;52.550;13.408;2022-10-16T07:52:29;10.40;;;10.00;;
3036;SDS011;1528;52.550;13.408;2022-10-16T07:55:15;11.80;;;11.00;;
3036;SDS011;1528;52.550;13.408;2022-10-16T07:58:00;9.23;;;8.83;;
3036;SDS011;1528;52.550;13.408;2022-10-16T08:00:46;22.17;;;20.47;;
3036;SDS011;1528;52.550;13.408;2022-10-16T08:03:32;8.83;;;8.43;;
3036;SDS011;1528;52.550;13.408;2022-10-16T08:06:18;22.20;;;20.23;;
3036;SDS011;1528;52.550;13.408;2022-10-16T08:09:05;10.90;;;10.30;;
3036;SDS011;1528;52.550;13.408;2022-10-16T08:11:51;20.10;;;18.27;;
3036;SDS011;1528;52.550;13.408;2022-10-16T08:14:37;7.40;;;7.10;;
3036;SDS011;1528;52.550;13.408;2022-10-16T08:17:22;7.93;;;7.43;;
3036;SDS011;1528;52.550;13.408;2022-10-16T08:20:08;7.87;;;7.47;;
3036;SDS011;1528;52.550;13.408;2022-10-16T08:22:55;8.10;;;7.63;;
3036;SDS011;1528;52.550;13.408;2022-10-16T08:25:42;8.80;;;8.50;;
3036;SDS011;1528;52.550;13.408;2022-10-16T08:28:27;8.07;;;7.77;;
3036;SDS011;1528;52.550;13.408;2022-10-16T08:31:14;8.80;;;8.30;;
3036;SDS011;1528;52.550;13.408;2022-10-16T08:34:00;8.73;;;8.33;;
3036;SDS011;1528;52.550;13.408;2022-10-16T08:36:45;8.13;;;7.73;;
3036;SDS011;1528;52.550;13.408;2022-10-16T08:39:31;7.20;;;6.90;;
3036;SDS011;1528;52.550;13.408;2022-10-16T08:42:21;8.97;;;8.47;;
3036;SDS011;1528;52.550;13.408;2022-10-16T08:45:27;8.40;;;8.00;;
3036;SDS011;1528;52.550;13.408;2022-10-16T08:48:20;7.53;;;7.20;;
3036;SDS011;1528;52.550;13.408;2022-10-16T08:51:10;7.30;;;7.00;;
3036;SDS011;1528;52.550;13.408;2022-10-16T08:54:01;6.83;;;6.53;;
3036;SDS011;1528;52.550;13.408;2022-10-16T08:56:49;8.77;;;8.47;;
3036;SDS011;1528;52.550;13.408;2022-10-16T08:59:36;10.47;;;9.97;;
3036;SDS011;1528;52.550;13.408;2022-10-16T09:02:23;8.47;;;8.07;;
3036;SDS011;1528;52.550;13.408;2022-10-16T09:08:40;9.00;;;8.50;;
3036;SDS011;1528;52.550;13.408;2022-10-16T09:11:39;10.23;;;9.73;;
3036;SDS011;1528;52.550;13.408;2022-10-16T09:14:38;10.80;;;10.40;;
3036;SDS011;1528;52.550;13.408;2022-10-16T09:17:37;9.00;;;8.60;;
3036;SDS011;1528;52.550;13.408;2022-10-16T09:20:34;7.47;;;7.07;;
3036;SDS011;1528;52.550;13.408;2022-10-16T09:23:27;8.00;;;7.70;;
3036;SDS011;1528;52.550;13.408;2022-10-16T09:26:14;6.73;;;6.43;;
3036;SDS011;1528;52.550;13.408;2022-10-16T09:29:03;6.30;;;6.00;;
3036;SDS011;1528;52.550;13.408;2022-10-16T09:31:49;7.80;;;7.40;;
3036;SDS011;1528;52.550;13.408;2022-10-16T09:34:36;7.20;;;6.90;;
3036;SDS011;1528;52.550;13.408;2022-10-16T09:37:26;8.13;;;7.73;;
3036;SDS011;1528;52.550;13.408;2022-10-16T09:40:12;7.77;;;7.47;;
3036;SDS011;1528;52.550;13.408;2022-10-16T09:43:01;8.10;;;7.80;;
3036;SDS011;1528;52.550;13.408;2022-10-16T09:45:54;7.73;;;7.33;;
3036;SDS011;1528;52.550;13.408;2022-10-16T09:48:44;8.13;;;7.77;;
3036;SDS011;1528;52.550;13.408;2022-10-16T09:51:33;8.10;;;7.80;;
3036;SDS011;1528;52.550;13.408;2022-10-16T09:54:20;7.53;;;7.23;;
3036;SDS011;1528;52.550;13.408;2022-10-16T09:57:06;7.93;;;7.53;;
3036;SDS011;1528;52.550;13.408;2022-10-16T09:59:56;7.73;;;7.43;;
3036;SDS011;1528;52.550;13.408;2022-10-16T10:02:43;7.07;;;6.77;;
3036;SDS011;1528;52.550;13.408;2022-10-16T10:05:30;7.93;;;7.63;;
3036;SDS011;1528;52.550;13.408;2022-10-16T10:08:16;7.70;;;7.40;;
3036;SDS011;1528;52.550;13.408;2022-10-16T10:11:03;8.00;;;7.70;;
3036;SDS011;1528;52.550;13.408;2022-10-16T10:13:48;7.80;;;7.40;;
3036;SDS011;1528;52.550;13.408;2022-10-16T10:16:34;7.57;;;7.27;;
3036;SDS011;1528;52.550;13.408;2022-10-16T10:19:20;7.30;;;7.00;;
3036;SDS011;1528;52.550;13.408;2022-10-16T10:22:15;7.23;;;6.83;;
3036;SDS011;1528;52.550;13.408;2022-10-16T10:28:30;9.30;;;8.90;;
3036;SDS011;1528;52.550;13.408;2022-10-16T10:31:29;7.67;;;7.37;;
3036;SDS011;1528;52.550;13.408;2022-10-16T10:34:26;9.80;;;9.40;;
3036;SDS011;1528;52.550;13.408;2022-10-16T10:37:28;9.47;;;9.07;;
3036;SDS011;1528;52.550;13.408;2022-10-16T10:40:29;8.43;;;8.03;;
3036;SDS011;1528;52.550;13.408;2022-10-16T10:43:28;7.87;;;7.40;;
3036;SDS011;1528;52.550;13.408;2022-10-16T10:46:28;8.20;;;7.87;;
3036;SDS011;1528;52.550;13.408;2022-10-16T10:49:34;7.70;;;7.20;;
3036;SDS011;1528;52.550;13.408;2022-10-16T10:52:46;7.63;;;7.33;;
3036;SDS011;1528;52.550;13.408;2022-10-16T10:55:49;8.30;;;7.90;;
3036;SDS011;1528;52.550;13.408;2022-10-16T11:02:44;7.80;;;7.50;;
3036;SDS011;1528;52.550;13.408;2022-10-16T11:05:50;9.03;;;8.53;;
3036;SDS011;1528;52.550;13.408;2022-10-16T11:09:03;8.17;;;7.47;;
3036;SDS011;1528;52.550;13.408;2022-10-16T11:11:54;6.97;;;6.77;;
3036;SDS011;1528;52.550;13.408;2022-10-16T11:14:46;8.50;;;8.20;;
3036;SDS011;1528;52.550;13.408;2022-10-16T11:17:38;9.13;;;8.83;;
3036;SDS011;1528;52.550;13.408;2022-10-16T11:20:26;8.07;;;7.77;;
3036;SDS011;1528;52.550;13.408;2022-10-16T11:23:16;7.73;;;7.43;;
3036;SDS011;1528;52.550;13.408;2022-10-16T11:26:11;7.50;;;7.27;;
3036;SDS011;1528;52.550;13.408;2022-10-16T11:29:01;9.10;;;8.70;;
3036;SDS011;1528;52.550;13.408;2022-10-16T11:32:01;8.70;;;8.40;;
3036;SDS011;1528;52.550;13.408;2022-10-16T11:34:57;9.60;;;9.23;;
3036;SDS011;1528;52.550;13.408;2022-10-16T11:37:47;9.40;;;8.70;;
3036;SDS011;1528;52.550;13.408;2022-10-16T11:40:37;9.17;;;8.77;;
3036;SDS011;1528;52.550;13.408;2022-10-16T11:43:28;8.80;;;8.47;;
3036;SDS011;1528;52.550;13.408;2022-10-16T11:46:20;8.43;;;8.13;;
3036;SDS011;1528;52.550;13.408;2022-10-16T11:49:09;7.77;;;7.37;;
3036;SDS011;1528;52.550;13.408;2022-10-16T11:51:59;8.33;;;7.83;;
3036;SDS011;1528;52.550;13.408;2022-10-16T11:54:52;7.37;;;7.07;;
3036;SDS011;1528;52.550;13.408;2022-10-16T11:57:42;6.53;;;6.20;;
3036;SDS011;1528;52.550;13.408;2022-10-16T12:00:33;6.20;;;6.00;;
3036;SDS011;1528;52.550;13.408;2022-10-16T12:03:26;6.23;;;6.03;;
3036;SDS011;1528;52.550;13.408;2022-10-16T12:06:19;6.77;;;6.47;;
3036;SDS011;1528;52.550;13.408;2022-10-16T12:09:15;7.70;;;7.30;;
3036;SDS011;1528;52.550;13.408;2022-10-16T12:15:19;6.23;;;5.93;;
3036;SDS011;1528;52.550;13.408;2022-10-16T12:18:21;7.30;;;6.90;;
3036;SDS011;1528;52.550;13.408;2022-10-16T12:21:07;6.80;;;6.43;;
3036;SDS011;1528;52.550;13.408;2022-10-16T12:23:54;6.80;;;6.50;;
3036;SDS011;1528;52.550;13.408;2022-10-16T12:26:43;6.03;;;5.73;;
3036;SDS011;1528;52.550;13.408;2022-10-16T12:29:36;4.93;;;4.73;;
3036;SDS011;1528;52.550;13.408;2022-10-16T12:32:26;7.77;;;7.43;;
3036;SDS011;1528;52.550;13.408;2022-10-16T12:35:19;6.07;;;5.87;;
3036;SDS011;1528;52.550;13.408;2022-10-16T12:38:07;6.60;;;6.30;;
3036;SDS011;1528;52.550;13.408;2022-10-16T12:41:00;5.33;;;5.13;;
3036;SDS011;1528;52.550;13.408;2022-10-16T12:43:48;7.77;;;7.47;;
3036;SDS011;1528;52.550;13.408;2022-10-16T12:46:35;6.80;;;6.50;;
3036;SDS011;1528;52.550;13.408;2022-10-16T12:49:29;7.10;;;6.80;;
3036;SDS011;1528;52.550;13.408;2022-10-16T12:52:27;7.10;;;6.90;;
3036;SDS011;1528;52.550;13.408;2022-10-16T12:55:20;6.93;;;6.73;;
3036;SDS011;1528;52.550;13.408;2022-10-16T12:58:17;6.97;;;6.67;;
3036;SDS011;1528;52.550;13.408;2022-10-16T13:01:12;8.20;;;7.90;;
3036;SDS011;1528;52.550;13.408;2022-10-16T13:04:31;5.97;;;5.77;;
3036;SDS011;1528;52.550;13.408;2022-10-16T13:07:43;6.20;;;6.00;;
3036;SDS011;1528;52.550;13.408;2022-10-16T13:10:39;6.03;;;5.83;;
3036;SDS011;1528;52.550;13.408;2022-10-16T13:13:34;5.63;;;5.43;;
3036;SDS011;1528;52.550;13.408;2022-10-16T13:16:35;6.77;;;6.37;;
3036;SDS011;1528;52.550;13.408;2022-10-16T13:19:35;6.77;;;6.50;;
3036;SDS011;1528;52.550;13.408;2022-10-16T13:22:29;6.60;;;6.40;;
3036;SDS011;1528;52.550;13.408;2022-10-16T13:25:23;6.37;;;6.17;;
3036;SDS011;1528;52.550;13.408;2022-10-16T13:28:16;7.77;;;7.37;;
3036;SDS011;1528;52.550;13.408;2022-10-16T13:31:04;6.50;;;6.30;;
3036;SDS011;1528;52.550;13.408;2022-10-16T13:33:55;7.60;;;7.30;;
3036;SDS011;1528;52.550;13.408;2022-10-16T13:36:44;6.90;;;6.70;;
3036;SDS011;1528;52.550;13.408;2022-10-16T13:39:30;7.10;;;6.80;;
3036;SDS011;1528;52.550;13.408;2022-10-16T13:42:20;6.00;;;5.80;;
3036;SDS011;1528;52.550;13.408;2022-10-16T13:45:17;6.70;;;6.40;;
3036;SDS011;1528;52.550;13.408;2022-10-16T13:48:03;6.87;;;6.57;;
3036;SDS011;1528;52.550;13.408;2022-10-16T13:50:59;6.47;;;6.17;;
3036;SDS011;1528;52.550;13.408;2022-10-16T13:53:49;8.67;;;8.37;;
3036;SDS011;1528;52.550;13.408;2022-10-16T13:56:35;7.70;;;7.40;;
3036;SDS011;1528;52.550;13.408;2022-10-16T13:59:25;7.50;;;7.30;;
3036;SDS011;1528;52.550;13.408;2022-10-16T14:02:18;7.00;;;6.80;;
3036;SDS011;1528;52.550;13.408;2022-10-16T14:05:09;8.10;;;7.77;;
3036;SDS011;1528;52.550;13.408;2022-10-16T14:07:56;7.03;;;6.83;;
3036;SDS011;1528;52.550;13.408;2022-10-16T14:10:46;7.93;;;7.63;;
3036;SDS011;1528;52.550;13.408;2022-10-16T14:13:36;6.80;;;6.60;;
3036;SDS011;1528;52.550;13.408;2022-10-16T14:16:25;6.53;;;6.30;;
3036;SDS011;1528;52.550;13.408;2022-10-16T14:19:14;6.77;;;6.37;;
3036;SDS011;1528;52.550;13.408;2022-10-16T14:22:11;8.10;;;7.50;;
3036;SDS011;1528;52.550;13.408;2022-10-16T14:25:24;7.33;;;7.03;;
3036;SDS011;1528;52.550;13.408;2022-10-16T14:28:15;7.40;;;7.10;;
3036;SDS011;1528;52.550;13.408;2022-10-16T14:31:02;8.13;;;7.83;;
3036;SDS011;1528;52.550;13.408;2022-10-16T14:37:15;7.83;;;7.60;;
3036;SDS011;1528;52.550;13.408;2022-10-16T14:40:13;6.40;;;6.20;;
3036;SDS011;1528;52.550;13.408;2022-10-16T14:43:00;6.83;;;6.53;;
3036;SDS011;1528;52.550;13.408;2022-10-16T14:45:49;7.70;;;7.10;;
3036;SDS011;1528;52.550;13.408;2022-10-16T14:48:39;6.50;;;6.07;;
3036;SDS011;1528;52.550;13.408;2022-10-16T14:51:27;6.10;;;5.90;;
3036;SDS011;1528;52.550;13.408;2022-10-16T14:54:14;6.20;;;6.00;;
3036;SDS011;1528;52.550;13.408;2022-10-16T14:57:00;6.93;;;6.73;;
3036;SDS011;1528;52.550;13.408;2022-10-16T14:59:45;6.17;;;5.97;;
3036;SDS011;1528;52.550;13.408;2022-10-16T15:02:32;6.53;;;6.33;;
3036;SDS011;1528;52.550;13.408;2022-10-16T15:05:20;6.97;;;6.70;;
3036;SDS011;1528;52.550;13.408;2022-10-16T15:08:09;8.07;;;7.77;;
3036;SDS011;1528;52.550;13.408;2022-10-16T15:10:55;6.70;;;6.40;;
3036;SDS011;1528;52.550;13.408;2022-10-16T15:13:41;7.03;;;6.83;;
3036;SDS011;1528;52.550;13.408;2022-10-16T15:16:26;7.00;;;6.70;;
3036;SDS011;1528;52.550;13.408;2022-10-16T15:19:12;7.23;;;6.83;;
3036;SDS011;1528;52.550;13.408;2022-10-16T15:21:58;7.53;;;7.23;;
3036;SDS011;1528;52.550;13.408;2022-10-16T15:24:44;7.07;;;6.73;;
3036;SDS011;1528;52.550;13.408;2022-10-16T15:27:30;6.60;;;6.30;;
3036;SDS011;1528;52.550;13.408;2022-10-16T15:30:23;6.73;;;6.43;;
3036;SDS011;1528;52.550;13.408;2022-10-16T15:33:10;7.30;;;7.03;;
3036;SDS011;1528;52.550;13.408;2022-10-16T15:35:57;8.20;;;7.90;;
3036;SDS011;1528;52.550;13.408;2022-10-16T15:38:43;6.90;;;6.70;;
3036;SDS011;1528;52.550;13.408;2022-10-16T15:41:31;7.83;;;7.53;;
3036;SDS011;1528;52.550;13.408;2022-10-16T15:44:16;7.67;;;7.37;;
3036;SDS011;1528;52.550;13.408;2022-10-16T15:47:02;7.87;;;7.60;;
3036;SDS011;1528;52.550;13.408;2022-10-16T15:49:47;6.93;;;6.63;;
3036;SDS011;1528;52.550;13.408;2022-10-16T15:52:33;6.50;;;6.30;;
3036;SDS011;1528;52.550;13.408;2022-10-16T15:55:18;7.20;;;6.90;;
3036;SDS011;1528;52.550;13.408;2022-10-16T15:58:05;9.70;;;9.20;;
3036;SDS011;1528;52.550;13.408;2022-10-16T16:00:54;7.23;;;6.93;;
3036;SDS011;1528;52.550;13.408;2022-10-16T16:03:40;8.97;;;8.67;;
3036;SDS011;1528;52.550;13.408;2022-10-16T16:06:25;6.97;;;6.67;;
3036;SDS011;1528;52.550;13.408;2022-10-16T16:09:12;7.90;;;7.60;;
3036;SDS011;1528;52.550;13.408;2022-10-16T16:11:58;7.70;;;7.40;;
3036;SDS011;1528;52.550;13.408;2022-10-16T16:14:47;8.50;;;8.10;;
3036;SDS011;1528;52.550;13.408;2022-10-16T16:17:32;8.87;;;8.57;;
3036;SDS011;1528;52.550;13.408;2022-10-16T16:20:19;8.20;;;7.80;;
3036;SDS011;1528;52.550;13.408;2022-10-16T16:23:04;7.00;;;6.60;;
3036;SDS011;1528;52.550;13.408;2022-10-16T16:26:03;10.73;;;10.13;;
3036;SDS011;1528;52.550;13.408;2022-10-16T16:28:49;9.73;;;9.33;;
3036;SDS011;1528;52.550;13.408;2022-10-16T16:31:36;9.60;;;9.07;;
3036;SDS011;1528;52.550;13.408;2022-10-16T16:34:21;12.83;;;11.83;;
3036;SDS011;1528;52.550;13.408;2022-10-16T16:37:08;11.37;;;10.70;;
3036;SDS011;1528;52.550;13.408;2022-10-16T16:39:53;10.17;;;9.37;;
3036;SDS011;1528;52.550;13.408;2022-10-16T16:42:41;8.77;;;8.37;;
3036;SDS011;1528;52.550;13.408;2022-10-16T16:45:27;9.03;;;8.63;;
3036;SDS011;1528;52.550;13.408;2022-10-16T16:48:14;7.70;;;7.30;;
3036;SDS011;1528;52.550;13.408;2022-10-16T16:51:02;7.67;;;7.27;;
3036;SDS011;1528;52.550;13.408;2022-10-16T16:53:48;8.50;;;8.10;;
3036;SDS011;1528;52.550;13.408;2022-10-16T16:56:35;8.67;;;8.37;;
3036;SDS011;1528;52.550;13.408;2022-10-16T16:59:21;8.33;;;8.03;;
3036;SDS011;1528;52.550;13.408;2022-10-16T17:02:06;7.67;;;7.27;;
3036;SDS011;1528;52.550;13.408;2022-10-16T17:04:54;10.33;;;9.83;;
3036;SDS011;1528;52.550;13.408;2022-10-16T17:07:41;7.17;;;6.73;;
3036;SDS011;1528;52.550;13.408;2022-10-16T17:10:28;8.47;;;7.97;;
3036;SDS011;1528;52.550;13.408;2022-10-16T17:13:13;7.03;;;6.73;;
3036;SDS011;1528;52.550;13.408;2022-10-16T17:15:59;8.93;;;8.53;;
3036;SDS011;1528;52.550;13.408;2022-10-16T17:18:45;8.00;;;7.70;;
3036;SDS011;1528;52.550;13.408;2022-10-16T17:21:32;7.43;;;7.03;;
3036;SDS011;1528;52.550;13.408;2022-10-16T17:24:18;7.73;;;7.33;;
3036;SDS011;1528;52.550;13.408;2022-10-16T17:27:04;7.60;;;7.23;;